sensor_id;sensor_type;location;lat;lon;timestamp;temperature;humidity
52107;DHT22;38105;52.968;5.974;2022-09-23T00:01:01;10.20;99.90
52107;DHT22;38105;52.968;5.974;2022-09-23T00:03:28;10.20;99.90
52107;DHT22;38105;52.968;5.974;2022-09-23T00:06:02;10.20;99.90
52107;DHT22;38105;52.968;5.974;2022-09-23T00:08:28;10.20;99.90
52107;DHT22;38105;52.968;5.974;2022-09-23T00:10:54;10.20;99.90
52107;DHT22;38105;52.968;5.974;2022-09-23T00:13:21;10.20;99.90
52107;DHT22;38105;52.968;5.974;2022-09-23T00:15:47;10.20;99.90
52107;DHT22;38105;52.968;5.974;2022-09-23T00:18:13;10.20;99.90
52107;DHT22;38105;52.968;5.974;2022-09-23T00:20:39;10.20;99.90
52107;DHT22;38105;52.968;5.974;2022-09-23T00:23:04;10.20;99.90
52107;DHT22;38105;52.968;5.974;2022-09-23T00:25:30;10.10;99.90
52107;DHT22;38105;52.968;5.974;2022-09-23T00:27:56;10.20;99.90
52107;DHT22;38105;52.968;5.974;2022-09-23T00:30:23;10.20;99.90
52107;DHT22;38105;52.968;5.974;2022-09-23T00:32:49;10.20;99.90
52107;DHT22;38105;52.968;5.974;2022-09-23T00:35:17;10.20;99.90
52107;DHT22;38105;52.968;5.974;2022-09-23T00:37:43;10.20;99.90
52107;DHT22;38105;52.968;5.974;2022-09-23T00:40:09;10.20;99.90
52107;DHT22;38105;52.968;5.974;2022-09-23T00:42:44;10.20;99.90
52107;DHT22;38105;52.968;5.974;2022-09-23T00:45:11;10.20;99.90
52107;DHT22;38105;52.968;5.974;2022-09-23T00:47:59;10.10;99.90
52107;DHT22;38105;52.968;5.974;2022-09-23T00:50:27;10.10;99.90
52107;DHT22;38105;52.968;5.974;2022-09-23T00:52:59;10.10;99.90
52107;DHT22;38105;52.968;5.974;2022-09-23T00:55:29;10.20;99.90
52107;DHT22;38105;52.968;5.974;2022-09-23T00:57:58;10.10;99.90
52107;DHT22;38105;52.968;5.974;2022-09-23T01:00:25;10.20;99.90
52107;DHT22;38105;52.968;5.974;2022-09-23T01:02:51;10.10;99.90
52107;DHT22;38105;52.968;5.974;2022-09-23T01:05:17;10.10;99.90
52107;DHT22;38105;52.968;5.974;2022-09-23T01:07:44;10.10;99.90
52107;DHT22;38105;52.968;5.974;2022-09-23T01:10:11;10.10;99.90
52107;DHT22;38105;52.968;5.974;2022-09-23T01:13:02;10.10;99.90
52107;DHT22;38105;52.968;5.974;2022-09-23T01:15:45;10.10;99.90
52107;DHT22;38105;52.968;5.974;2022-09-23T01:18:16;10.10;99.90
52107;DHT22;38105;52.968;5.974;2022-09-23T01:29:00;10.20;99.90
52107;DHT22;38105;52.968;5.974;2022-09-23T01:31:33;10.10;99.90
52107;DHT22;38105;52.968;5.974;2022-09-23T01:37:16;10.10;99.90
52107;DHT22;38105;52.968;5.974;2022-09-23T01:40:08;10.10;99.90
52107;DHT22;38105;52.968;5.974;2022-09-23T01:45:21;10.10;99.90
52107;DHT22;38105;52.968;5.974;2022-09-23T01:50:42;10.10;99.90
52107;DHT22;38105;52.968;5.974;2022-09-23T01:53:35;10.10;99.90
52107;DHT22;38105;52.968;5.974;2022-09-23T01:56:12;10.10;99.90
52107;DHT22;38105;52.968;5.974;2022-09-23T01:58:57;10.00;99.90
52107;DHT22;38105;52.968;5.974;2022-09-23T02:01:34;10.00;99.90
52107;DHT22;38105;52.968;5.974;2022-09-23T02:04:11;10.00;99.90
52107;DHT22;38105;52.968;5.974;2022-09-23T02:06:54;9.90;99.90
52107;DHT22;38105;52.968;5.974;2022-09-23T02:09:26;9.90;99.90
52107;DHT22;38105;52.968;5.974;2022-09-23T02:12:00;9.90;99.90
52107;DHT22;38105;52.968;5.974;2022-09-23T02:17:49;9.90;99.90
52107;DHT22;38105;52.968;5.974;2022-09-23T02:20:21;9.70;99.90
52107;DHT22;38105;52.968;5.974;2022-09-23T02:23:32;9.70;99.90
52107;DHT22;38105;52.968;5.974;2022-09-23T02:26:05;9.70;99.90
52107;DHT22;38105;52.968;5.974;2022-09-23T02:28:57;9.60;99.90
52107;DHT22;38105;52.968;5.974;2022-09-23T02:31:38;9.60;99.90
52107;DHT22;38105;52.968;5.974;2022-09-23T02:34:16;9.60;99.90
52107;DHT22;38105;52.968;5.974;2022-09-23T02:45:19;9.50;99.90
52107;DHT22;38105;52.968;5.974;2022-09-23T02:47:50;9.40;99.90
52107;DHT22;38105;52.968;5.974;2022-09-23T02:50:17;9.40;99.90
52107;DHT22;38105;52.968;5.974;2022-09-23T02:52:45;9.50;99.90
52107;DHT22;38105;52.968;5.974;2022-09-23T02:55:15;9.40;99.90
52107;DHT22;38105;52.968;5.974;2022-09-23T02:57:41;9.40;99.90
52107;DHT22;38105;52.968;5.974;2022-09-23T03:00:08;9.30;99.90
52107;DHT22;38105;52.968;5.974;2022-09-23T03:02:59;9.40;99.90
52107;DHT22;38105;52.968;5.974;2022-09-23T03:05:28;9.30;99.90
52107;DHT22;38105;52.968;5.974;2022-09-23T03:08:45;9.30;99.90
52107;DHT22;38105;52.968;5.974;2022-09-23T03:11:06;9.40;99.90
52107;DHT22;38105;52.968;5.974;2022-09-23T03:16:25;9.30;99.90
52107;DHT22;38105;52.968;5.974;2022-09-23T03:19:31;9.30;99.90
52107;DHT22;38105;52.968;5.974;2022-09-23T03:22:07;9.30;99.90
52107;DHT22;38105;52.968;5.974;2022-09-23T03:24:36;9.30;99.90
52107;DHT22;38105;52.968;5.974;2022-09-23T03:27:07;9.30;99.90
52107;DHT22;38105;52.968;5.974;2022-09-23T03:29:40;9.20;99.90
52107;DHT22;38105;52.968;5.974;2022-09-23T03:32:11;9.20;99.90
52107;DHT22;38105;52.968;5.974;2022-09-23T03:34:40;9.20;99.90
52107;DHT22;38105;52.968;5.974;2022-09-23T03:37:21;9.20;99.90
52107;DHT22;38105;52.968;5.974;2022-09-23T03:39:58;9.20;99.90
52107;DHT22;38105;52.968;5.974;2022-09-23T03:42:28;9.20;99.90
52107;DHT22;38105;52.968;5.974;2022-09-23T03:44:55;9.20;99.90
52107;DHT22;38105;52.968;5.974;2022-09-23T03:47:26;9.10;99.90
52107;DHT22;38105;52.968;5.974;2022-09-23T03:49:53;9.10;99.90
52107;DHT22;38105;52.968;5.974;2022-09-23T03:52:21;9.10;99.90
52107;DHT22;38105;52.968;5.974;2022-09-23T03:54:47;9.10;99.90
52107;DHT22;38105;52.968;5.974;2022-09-23T03:57:13;9.10;99.90
52107;DHT22;38105;52.968;5.974;2022-09-23T03:59:39;9.10;99.90
52107;DHT22;38105;52.968;5.974;2022-09-23T04:02:06;9.10;99.90
52107;DHT22;38105;52.968;5.974;2022-09-23T04:04:36;9.00;99.90
52107;DHT22;38105;52.968;5.974;2022-09-23T04:07:03;9.00;99.90
52107;DHT22;38105;52.968;5.974;2022-09-23T04:09:29;9.10;99.90
52107;DHT22;38105;52.968;5.974;2022-09-23T04:11:54;9.00;99.90
52107;DHT22;38105;52.968;5.974;2022-09-23T04:14:21;8.90;99.90
52107;DHT22;38105;52.968;5.974;2022-09-23T04:16:48;8.90;99.90
52107;DHT22;38105;52.968;5.974;2022-09-23T04:19:14;8.90;99.90
52107;DHT22;38105;52.968;5.974;2022-09-23T04:21:41;8.90;99.90
52107;DHT22;38105;52.968;5.974;2022-09-23T04:24:08;8.90;99.90
52107;DHT22;38105;52.968;5.974;2022-09-23T04:26:34;8.90;99.90
52107;DHT22;38105;52.968;5.974;2022-09-23T04:29:00;8.90;99.90
52107;DHT22;38105;52.968;5.974;2022-09-23T04:31:26;8.90;99.90
52107;DHT22;38105;52.968;5.974;2022-09-23T04:33:53;8.90;99.90
52107;DHT22;38105;52.968;5.974;2022-09-23T04:36:19;8.90;99.90
52107;DHT22;38105;52.968;5.974;2022-09-23T04:38:46;8.90;99.90
52107;DHT22;38105;52.968;5.974;2022-09-23T04:41:12;8.90;99.90
52107;DHT22;38105;52.968;5.974;2022-09-23T04:43:38;8.90;99.90
52107;DHT22;38105;52.968;5.974;2022-09-23T04:46:06;8.90;99.90
52107;DHT22;38105;52.968;5.974;2022-09-23T04:48:34;8.80;99.90
52107;DHT22;38105;52.968;5.974;2022-09-23T04:51:05;8.90;99.90
52107;DHT22;38105;52.968;5.974;2022-09-23T04:53:32;8.80;99.90
52107;DHT22;38105;52.968;5.974;2022-09-23T04:56:11;8.90;99.90
52107;DHT22;38105;52.968;5.974;2022-09-23T04:58:38;8.90;99.90
52107;DHT22;38105;52.968;5.974;2022-09-23T05:03:44;8.80;99.90
52107;DHT22;38105;52.968;5.974;2022-09-23T05:06:12;8.80;99.90
52107;DHT22;38105;52.968;5.974;2022-09-23T05:08:39;8.90;99.90
52107;DHT22;38105;52.968;5.974;2022-09-23T05:11:05;8.80;99.90
52107;DHT22;38105;52.968;5.974;2022-09-23T05:13:31;8.90;99.90
52107;DHT22;38105;52.968;5.974;2022-09-23T05:15:59;8.80;99.90
52107;DHT22;38105;52.968;5.974;2022-09-23T05:18:26;8.80;99.90
52107;DHT22;38105;52.968;5.974;2022-09-23T05:20:55;8.80;99.90
52107;DHT22;38105;52.968;5.974;2022-09-23T05:23:22;8.80;99.90
52107;DHT22;38105;52.968;5.974;2022-09-23T05:25:54;8.80;99.90
52107;DHT22;38105;52.968;5.974;2022-09-23T05:28:20;8.90;99.90
52107;DHT22;38105;52.968;5.974;2022-09-23T05:30:46;8.80;99.90
52107;DHT22;38105;52.968;5.974;2022-09-23T05:33:12;8.80;99.90
52107;DHT22;38105;52.968;5.974;2022-09-23T05:35:38;8.90;99.90
52107;DHT22;38105;52.968;5.974;2022-09-23T05:38:04;8.90;99.90
52107;DHT22;38105;52.968;5.974;2022-09-23T05:40:30;8.90;99.90
52107;DHT22;38105;52.968;5.974;2022-09-23T05:42:56;8.90;99.90
52107;DHT22;38105;52.968;5.974;2022-09-23T05:45:22;8.90;99.90
52107;DHT22;38105;52.968;5.974;2022-09-23T05:47:48;8.90;99.90
52107;DHT22;38105;52.968;5.974;2022-09-23T05:50:14;9.00;99.90
52107;DHT22;38105;52.968;5.974;2022-09-23T05:52:41;8.90;99.90
52107;DHT22;38105;52.968;5.974;2022-09-23T05:55:07;8.90;99.90
52107;DHT22;38105;52.968;5.974;2022-09-23T05:57:32;8.90;99.90
52107;DHT22;38105;52.968;5.974;2022-09-23T05:59:58;9.10;99.90
52107;DHT22;38105;52.968;5.974;2022-09-23T06:02:24;9.10;99.90
52107;DHT22;38105;52.968;5.974;2022-09-23T06:04:50;9.40;99.90
52107;DHT22;38105;52.968;5.974;2022-09-23T06:07:15;9.90;99.90
52107;DHT22;38105;52.968;5.974;2022-09-23T06:09:41;10.40;99.90
52107;DHT22;38105;52.968;5.974;2022-09-23T06:12:07;10.50;99.90
52107;DHT22;38105;52.968;5.974;2022-09-23T06:14:32;10.60;99.90
52107;DHT22;38105;52.968;5.974;2022-09-23T06:16:58;10.70;99.90
52107;DHT22;38105;52.968;5.974;2022-09-23T06:19:24;10.60;99.90
52107;DHT22;38105;52.968;5.974;2022-09-23T06:21:49;10.50;99.90
52107;DHT22;38105;52.968;5.974;2022-09-23T06:24:15;10.30;99.90
52107;DHT22;38105;52.968;5.974;2022-09-23T06:26:41;10.30;99.90
52107;DHT22;38105;52.968;5.974;2022-09-23T06:29:09;10.20;99.90
52107;DHT22;38105;52.968;5.974;2022-09-23T06:31:36;10.10;99.90
52107;DHT22;38105;52.968;5.974;2022-09-23T06:34:02;10.10;99.90
52107;DHT22;38105;52.968;5.974;2022-09-23T06:36:28;10.00;99.90
52107;DHT22;38105;52.968;5.974;2022-09-23T06:38:53;9.90;99.90
52107;DHT22;38105;52.968;5.974;2022-09-23T06:41:19;10.00;99.90
52107;DHT22;38105;52.968;5.974;2022-09-23T06:43:45;10.00;99.90
52107;DHT22;38105;52.968;5.974;2022-09-23T06:46:14;10.00;99.90
52107;DHT22;38105;52.968;5.974;2022-09-23T06:48:40;10.00;99.90
52107;DHT22;38105;52.968;5.974;2022-09-23T06:51:10;10.00;99.90
52107;DHT22;38105;52.968;5.974;2022-09-23T06:53:37;10.00;99.90
52107;DHT22;38105;52.968;5.974;2022-09-23T06:56:06;10.10;99.90
52107;DHT22;38105;52.968;5.974;2022-09-23T06:58:33;10.20;99.90
52107;DHT22;38105;52.968;5.974;2022-09-23T07:01:07;10.10;99.90
52107;DHT22;38105;52.968;5.974;2022-09-23T07:03:34;10.20;99.90
52107;DHT22;38105;52.968;5.974;2022-09-23T07:06:00;10.20;99.90
52107;DHT22;38105;52.968;5.974;2022-09-23T07:08:28;10.30;99.90
52107;DHT22;38105;52.968;5.974;2022-09-23T07:10:57;10.40;99.90
52107;DHT22;38105;52.968;5.974;2022-09-23T07:13:24;10.40;99.90
52107;DHT22;38105;52.968;5.974;2022-09-23T07:15:51;10.50;99.90
52107;DHT22;38105;52.968;5.974;2022-09-23T07:18:17;10.60;99.90
52107;DHT22;38105;52.968;5.974;2022-09-23T07:20:44;10.90;99.90
52107;DHT22;38105;52.968;5.974;2022-09-23T07:23:11;11.00;99.90
52107;DHT22;38105;52.968;5.974;2022-09-23T07:25:37;11.20;99.90
52107;DHT22;38105;52.968;5.974;2022-09-23T07:28:03;11.30;99.90
52107;DHT22;38105;52.968;5.974;2022-09-23T07:30:30;11.30;99.90
52107;DHT22;38105;52.968;5.974;2022-09-23T07:32:56;11.40;99.90
52107;DHT22;38105;52.968;5.974;2022-09-23T07:35:21;11.40;99.90
52107;DHT22;38105;52.968;5.974;2022-09-23T07:37:49;11.40;99.90
52107;DHT22;38105;52.968;5.974;2022-09-23T07:40:14;11.40;99.90
52107;DHT22;38105;52.968;5.974;2022-09-23T07:42:40;11.40;99.90
52107;DHT22;38105;52.968;5.974;2022-09-23T07:45:07;11.40;99.90
52107;DHT22;38105;52.968;5.974;2022-09-23T07:47:33;11.40;99.90
52107;DHT22;38105;52.968;5.974;2022-09-23T07:50:00;11.40;99.90
52107;DHT22;38105;52.968;5.974;2022-09-23T07:52:25;11.50;99.90
52107;DHT22;38105;52.968;5.974;2022-09-23T07:54:51;11.40;99.90
52107;DHT22;38105;52.968;5.974;2022-09-23T07:57:17;11.50;99.90
52107;DHT22;38105;52.968;5.974;2022-09-23T07:59:42;11.60;99.90
52107;DHT22;38105;52.968;5.974;2022-09-23T08:02:09;11.60;99.90
52107;DHT22;38105;52.968;5.974;2022-09-23T08:04:35;11.70;99.90
52107;DHT22;38105;52.968;5.974;2022-09-23T08:07:04;11.90;99.90
52107;DHT22;38105;52.968;5.974;2022-09-23T08:09:32;12.00;99.90
52107;DHT22;38105;52.968;5.974;2022-09-23T08:11:59;12.20;99.90
52107;DHT22;38105;52.968;5.974;2022-09-23T08:14:25;12.40;99.90
52107;DHT22;38105;52.968;5.974;2022-09-23T08:16:50;12.50;99.90
52107;DHT22;38105;52.968;5.974;2022-09-23T08:19:17;12.60;99.90
52107;DHT22;38105;52.968;5.974;2022-09-23T08:21:44;12.80;99.90
52107;DHT22;38105;52.968;5.974;2022-09-23T08:24:16;12.90;99.90
52107;DHT22;38105;52.968;5.974;2022-09-23T08:26:43;13.10;99.90
52107;DHT22;38105;52.968;5.974;2022-09-23T08:29:12;13.30;99.90
52107;DHT22;38105;52.968;5.974;2022-09-23T08:31:39;13.40;99.90
52107;DHT22;38105;52.968;5.974;2022-09-23T08:34:04;13.60;99.90
52107;DHT22;38105;52.968;5.974;2022-09-23T08:36:31;13.90;99.90
52107;DHT22;38105;52.968;5.974;2022-09-23T08:38:56;14.20;99.90
52107;DHT22;38105;52.968;5.974;2022-09-23T08:41:49;14.50;99.90
52107;DHT22;38105;52.968;5.974;2022-09-23T08:44:26;14.70;99.90
52107;DHT22;38105;52.968;5.974;2022-09-23T08:47:00;14.90;99.90
52107;DHT22;38105;52.968;5.974;2022-09-23T08:49:36;15.10;99.90
52107;DHT22;38105;52.968;5.974;2022-09-23T08:52:24;15.20;99.90
52107;DHT22;38105;52.968;5.974;2022-09-23T08:54:52;15.30;99.90
52107;DHT22;38105;52.968;5.974;2022-09-23T08:57:48;15.30;99.90
52107;DHT22;38105;52.968;5.974;2022-09-23T09:00:22;15.30;99.90
52107;DHT22;38105;52.968;5.974;2022-09-23T09:02:50;15.10;99.90
52107;DHT22;38105;52.968;5.974;2022-09-23T09:05:23;15.10;99.90
52107;DHT22;38105;52.968;5.974;2022-09-23T09:07:51;15.00;99.90
52107;DHT22;38105;52.968;5.974;2022-09-23T09:10:24;14.90;99.90
52107;DHT22;38105;52.968;5.974;2022-09-23T09:13:09;14.80;99.90
52107;DHT22;38105;52.968;5.974;2022-09-23T09:15:50;14.70;99.90
52107;DHT22;38105;52.968;5.974;2022-09-23T09:18:20;14.60;99.90
52107;DHT22;38105;52.968;5.974;2022-09-23T09:20:56;14.60;99.90
52107;DHT22;38105;52.968;5.974;2022-09-23T09:23:54;14.60;99.90
52107;DHT22;38105;52.968;5.974;2022-09-23T09:26:26;14.60;99.90
52107;DHT22;38105;52.968;5.974;2022-09-23T09:29:03;14.50;99.90
52107;DHT22;38105;52.968;5.974;2022-09-23T09:31:33;14.50;99.90
52107;DHT22;38105;52.968;5.974;2022-09-23T09:37:06;14.40;99.90
52107;DHT22;38105;52.968;5.974;2022-09-23T09:39:34;14.40;99.90
52107;DHT22;38105;52.968;5.974;2022-09-23T09:42:02;14.40;99.90
52107;DHT22;38105;52.968;5.974;2022-09-23T09:44:33;14.50;99.90
52107;DHT22;38105;52.968;5.974;2022-09-23T09:47:07;14.40;99.90
52107;DHT22;38105;52.968;5.974;2022-09-23T09:52:33;14.60;99.90
52107;DHT22;38105;52.968;5.974;2022-09-23T09:57:58;14.70;99.90
52107;DHT22;38105;52.968;5.974;2022-09-23T10:02:55;14.80;99.90
52107;DHT22;38105;52.968;5.974;2022-09-23T10:05:33;14.80;99.90
52107;DHT22;38105;52.968;5.974;2022-09-23T10:10:51;15.00;99.90
52107;DHT22;38105;52.968;5.974;2022-09-23T10:13:20;15.10;99.90
52107;DHT22;38105;52.968;5.974;2022-09-23T10:15:48;15.10;99.90
52107;DHT22;38105;52.968;5.974;2022-09-23T10:21:13;15.20;99.90
52107;DHT22;38105;52.968;5.974;2022-09-23T10:23:40;15.20;99.90
52107;DHT22;38105;52.968;5.974;2022-09-23T10:26:06;15.30;99.90
52107;DHT22;38105;52.968;5.974;2022-09-23T10:28:49;15.40;99.90
52107;DHT22;38105;52.968;5.974;2022-09-23T10:31:25;15.40;99.90
52107;DHT22;38105;52.968;5.974;2022-09-23T10:34:02;15.50;99.90
52107;DHT22;38105;52.968;5.974;2022-09-23T10:36:32;15.40;99.90
52107;DHT22;38105;52.968;5.974;2022-09-23T10:39:02;15.50;99.90
52107;DHT22;38105;52.968;5.974;2022-09-23T10:42:08;15.50;99.90
52107;DHT22;38105;52.968;5.974;2022-09-23T10:45:05;15.60;99.90
52107;DHT22;38105;52.968;5.974;2022-09-23T10:50:50;15.50;99.90
52107;DHT22;38105;52.968;5.974;2022-09-23T11:01:41;15.40;99.90
52107;DHT22;38105;52.968;5.974;2022-09-23T11:04:33;15.50;99.90
52107;DHT22;38105;52.968;5.974;2022-09-23T11:07:17;15.50;99.90
52107;DHT22;38105;52.968;5.974;2022-09-23T11:10:06;15.50;99.90
52107;DHT22;38105;52.968;5.974;2022-09-23T11:32:31;15.50;99.90
52107;DHT22;38105;52.968;5.974;2022-09-23T11:35:12;15.50;99.90
52107;DHT22;38105;52.968;5.974;2022-09-23T11:37:46;15.50;99.90
52107;DHT22;38105;52.968;5.974;2022-09-23T11:40:14;15.60;99.90
52107;DHT22;38105;52.968;5.974;2022-09-23T11:45:31;15.50;99.90
52107;DHT22;38105;52.968;5.974;2022-09-23T11:48:03;15.50;99.90
52107;DHT22;38105;52.968;5.974;2022-09-23T11:50:45;15.40;99.90
52107;DHT22;38105;52.968;5.974;2022-09-23T11:53:50;15.40;99.90
52107;DHT22;38105;52.968;5.974;2022-09-23T11:56:22;15.40;99.90
52107;DHT22;38105;52.968;5.974;2022-09-23T12:01:56;15.40;99.90
52107;DHT22;38105;52.968;5.974;2022-09-23T12:04:37;15.30;99.90
52107;DHT22;38105;52.968;5.974;2022-09-23T12:09:59;15.40;99.90
52107;DHT22;38105;52.968;5.974;2022-09-23T12:13:06;15.40;99.90
52107;DHT22;38105;52.968;5.974;2022-09-23T12:26:23;15.50;99.90
52107;DHT22;38105;52.968;5.974;2022-09-23T12:28:51;15.60;99.90
52107;DHT22;38105;52.968;5.974;2022-09-23T12:31:21;15.60;99.90
52107;DHT22;38105;52.968;5.974;2022-09-23T12:33:55;15.70;99.90
52107;DHT22;38105;52.968;5.974;2022-09-23T12:36:28;15.60;99.90
52107;DHT22;38105;52.968;5.974;2022-09-23T12:39:06;15.70;99.90
52107;DHT22;38105;52.968;5.974;2022-09-23T12:41:45;15.70;99.90
52107;DHT22;38105;52.968;5.974;2022-09-23T12:46:47;15.60;99.90
52107;DHT22;38105;52.968;5.974;2022-09-23T12:49:36;15.60;99.90
52107;DHT22;38105;52.968;5.974;2022-09-23T12:54:38;15.50;99.90
52107;DHT22;38105;52.968;5.974;2022-09-23T13:00:21;15.60;99.90
52107;DHT22;38105;52.968;5.974;2022-09-23T13:05:44;15.50;99.90
52107;DHT22;38105;52.968;5.974;2022-09-23T13:08:29;15.40;99.90
52107;DHT22;38105;52.968;5.974;2022-09-23T13:11:03;15.40;99.90
52107;DHT22;38105;52.968;5.974;2022-09-23T13:13:31;15.40;99.90
52107;DHT22;38105;52.968;5.974;2022-09-23T13:19:03;15.30;99.90
52107;DHT22;38105;52.968;5.974;2022-09-23T13:26:55;15.30;99.90
52107;DHT22;38105;52.968;5.974;2022-09-23T13:29:45;15.30;99.90
52107;DHT22;38105;52.968;5.974;2022-09-23T13:32:17;15.20;99.90
52107;DHT22;38105;52.968;5.974;2022-09-23T13:34:46;15.10;99.90
52107;DHT22;38105;52.968;5.974;2022-09-23T13:37:22;15.10;99.90
52107;DHT22;38105;52.968;5.974;2022-09-23T13:39:49;15.00;99.90
52107;DHT22;38105;52.968;5.974;2022-09-23T13:42:26;15.00;99.90
52107;DHT22;38105;52.968;5.974;2022-09-23T13:44:57;14.90;99.90
52107;DHT22;38105;52.968;5.974;2022-09-23T13:47:28;15.00;99.90
52107;DHT22;38105;52.968;5.974;2022-09-23T13:49:55;14.90;99.90
52107;DHT22;38105;52.968;5.974;2022-09-23T13:52:26;15.00;99.90
52107;DHT22;38105;52.968;5.974;2022-09-23T13:54:54;14.90;99.90
52107;DHT22;38105;52.968;5.974;2022-09-23T13:59:49;14.90;99.90
52107;DHT22;38105;52.968;5.974;2022-09-23T14:02:15;14.90;99.90
52107;DHT22;38105;52.968;5.974;2022-09-23T14:04:41;14.90;99.90
52107;DHT22;38105;52.968;5.974;2022-09-23T14:07:09;15.00;99.90
52107;DHT22;38105;52.968;5.974;2022-09-23T14:09:40;14.90;99.90
52107;DHT22;38105;52.968;5.974;2022-09-23T14:12:06;14.90;99.90
52107;DHT22;38105;52.968;5.974;2022-09-23T14:14:36;14.90;99.90
52107;DHT22;38105;52.968;5.974;2022-09-23T14:17:05;15.00;99.90
52107;DHT22;38105;52.968;5.974;2022-09-23T14:19:32;15.00;99.90
52107;DHT22;38105;52.968;5.974;2022-09-23T14:22:00;15.00;99.90
52107;DHT22;38105;52.968;5.974;2022-09-23T14:24:30;15.00;99.90
52107;DHT22;38105;52.968;5.974;2022-09-23T14:27:14;14.90;99.90
52107;DHT22;38105;52.968;5.974;2022-09-23T14:29:43;14.90;99.90
52107;DHT22;38105;52.968;5.974;2022-09-23T14:32:15;14.90;99.90
52107;DHT22;38105;52.968;5.974;2022-09-23T14:40:05;15.00;99.90
52107;DHT22;38105;52.968;5.974;2022-09-23T14:42:37;15.10;99.90
52107;DHT22;38105;52.968;5.974;2022-09-23T14:45:08;15.10;99.90
52107;DHT22;38105;52.968;5.974;2022-09-23T14:47:35;15.10;99.90
52107;DHT22;38105;52.968;5.974;2022-09-23T14:50:01;15.20;99.90
52107;DHT22;38105;52.968;5.974;2022-09-23T14:52:49;15.30;99.90
52107;DHT22;38105;52.968;5.974;2022-09-23T14:55:16;15.20;99.90
52107;DHT22;38105;52.968;5.974;2022-09-23T14:57:43;15.20;99.90
52107;DHT22;38105;52.968;5.974;2022-09-23T15:00:17;15.20;99.90
52107;DHT22;38105;52.968;5.974;2022-09-23T15:03:00;15.20;99.90
52107;DHT22;38105;52.968;5.974;2022-09-23T15:05:40;15.30;99.90
52107;DHT22;38105;52.968;5.974;2022-09-23T15:08:11;15.20;99.90
52107;DHT22;38105;52.968;5.974;2022-09-23T15:10:39;15.20;99.90
52107;DHT22;38105;52.968;5.974;2022-09-23T15:13:14;15.20;99.90
52107;DHT22;38105;52.968;5.974;2022-09-23T15:15:41;15.20;99.90
52107;DHT22;38105;52.968;5.974;2022-09-23T15:18:27;15.20;99.90
52107;DHT22;38105;52.968;5.974;2022-09-23T15:20:55;15.20;99.90
52107;DHT22;38105;52.968;5.974;2022-09-23T15:23:56;15.10;99.90
52107;DHT22;38105;52.968;5.974;2022-09-23T15:26:22;15.10;99.90
52107;DHT22;38105;52.968;5.974;2022-09-23T15:28:49;15.10;99.90
52107;DHT22;38105;52.968;5.974;2022-09-23T15:31:18;15.00;99.90
52107;DHT22;38105;52.968;5.974;2022-09-23T15:33:45;15.10;99.90
52107;DHT22;38105;52.968;5.974;2022-09-23T15:36:23;15.00;99.90
52107;DHT22;38105;52.968;5.974;2022-09-23T15:38:50;15.00;99.90
52107;DHT22;38105;52.968;5.974;2022-09-23T15:41:17;15.00;99.90
52107;DHT22;38105;52.968;5.974;2022-09-23T15:43:43;15.00;99.90
52107;DHT22;38105;52.968;5.974;2022-09-23T15:48:53;15.00;99.90
52107;DHT22;38105;52.968;5.974;2022-09-23T15:51:21;15.00;99.90
52107;DHT22;38105;52.968;5.974;2022-09-23T15:53:47;15.00;99.90
52107;DHT22;38105;52.968;5.974;2022-09-23T15:56:15;14.90;99.90
52107;DHT22;38105;52.968;5.974;2022-09-23T15:58:41;14.90;99.90
52107;DHT22;38105;52.968;5.974;2022-09-23T16:01:33;15.00;99.90
52107;DHT22;38105;52.968;5.974;2022-09-23T16:03:57;14.90;99.90
52107;DHT22;38105;52.968;5.974;2022-09-23T16:06:28;14.90;99.90
52107;DHT22;38105;52.968;5.974;2022-09-23T16:08:54;15.00;99.90
52107;DHT22;38105;52.968;5.974;2022-09-23T16:11:26;15.00;99.90
52107;DHT22;38105;52.968;5.974;2022-09-23T16:13:54;15.00;99.90
52107;DHT22;38105;52.968;5.974;2022-09-23T16:16:20;15.00;99.90
52107;DHT22;38105;52.968;5.974;2022-09-23T16:18:46;15.00;99.90
52107;DHT22;38105;52.968;5.974;2022-09-23T16:21:13;15.00;99.90
52107;DHT22;38105;52.968;5.974;2022-09-23T16:23:42;14.90;99.90
52107;DHT22;38105;52.968;5.974;2022-09-23T16:26:23;14.80;99.90
52107;DHT22;38105;52.968;5.974;2022-09-23T16:28:51;14.70;99.90
52107;DHT22;38105;52.968;5.974;2022-09-23T16:31:18;14.80;99.90
52107;DHT22;38105;52.968;5.974;2022-09-23T16:33:45;14.70;99.90
52107;DHT22;38105;52.968;5.974;2022-09-23T16:36:16;14.80;99.90
52107;DHT22;38105;52.968;5.974;2022-09-23T16:38:45;14.80;99.90
52107;DHT22;38105;52.968;5.974;2022-09-23T16:41:12;14.70;99.90
52107;DHT22;38105;52.968;5.974;2022-09-23T16:43:39;14.80;99.90
52107;DHT22;38105;52.968;5.974;2022-09-23T16:46:06;14.70;99.90
52107;DHT22;38105;52.968;5.974;2022-09-23T16:48:33;14.70;99.90
52107;DHT22;38105;52.968;5.974;2022-09-23T16:51:06;14.70;99.90
52107;DHT22;38105;52.968;5.974;2022-09-23T16:53:33;14.70;99.90
52107;DHT22;38105;52.968;5.974;2022-09-23T16:56:07;14.70;99.90
52107;DHT22;38105;52.968;5.974;2022-09-23T16:58:37;14.50;99.90
52107;DHT22;38105;52.968;5.974;2022-09-23T17:01:04;14.50;99.90
52107;DHT22;38105;52.968;5.974;2022-09-23T17:03:48;14.50;99.90
52107;DHT22;38105;52.968;5.974;2022-09-23T17:06:15;14.60;99.90
52107;DHT22;38105;52.968;5.974;2022-09-23T17:08:44;14.60;99.90
52107;DHT22;38105;52.968;5.974;2022-09-23T17:11:12;14.60;99.90
52107;DHT22;38105;52.968;5.974;2022-09-23T17:13:42;14.60;99.90
52107;DHT22;38105;52.968;5.974;2022-09-23T17:16:21;14.70;99.90
52107;DHT22;38105;52.968;5.974;2022-09-23T17:18:47;14.50;99.90
52107;DHT22;38105;52.968;5.974;2022-09-23T17:21:13;14.40;99.90
52107;DHT22;38105;52.968;5.974;2022-09-23T17:23:38;14.50;99.90
52107;DHT22;38105;52.968;5.974;2022-09-23T17:26:04;14.50;99.90
52107;DHT22;38105;52.968;5.974;2022-09-23T17:28:34;14.30;99.90
52107;DHT22;38105;52.968;5.974;2022-09-23T17:31:01;14.40;99.90
52107;DHT22;38105;52.968;5.974;2022-09-23T17:33:29;14.20;99.90
52107;DHT22;38105;52.968;5.974;2022-09-23T17:35:55;14.30;99.90
52107;DHT22;38105;52.968;5.974;2022-09-23T17:38:25;14.20;99.90
52107;DHT22;38105;52.968;5.974;2022-09-23T17:40:53;14.40;99.90
52107;DHT22;38105;52.968;5.974;2022-09-23T17:43:20;14.30;99.90
52107;DHT22;38105;52.968;5.974;2022-09-23T17:45:56;14.10;99.90
52107;DHT22;38105;52.968;5.974;2022-09-23T17:48:25;14.20;99.90
52107;DHT22;38105;52.968;5.974;2022-09-23T17:50:54;14.10;99.90
52107;DHT22;38105;52.968;5.974;2022-09-23T17:53:21;14.00;99.90
52107;DHT22;38105;52.968;5.974;2022-09-23T17:55:57;14.10;99.90
52107;DHT22;38105;52.968;5.974;2022-09-23T17:58:27;14.00;99.90
52107;DHT22;38105;52.968;5.974;2022-09-23T18:00:54;14.00;99.90
52107;DHT22;38105;52.968;5.974;2022-09-23T18:03:21;14.20;99.90
52107;DHT22;38105;52.968;5.974;2022-09-23T18:05:47;14.00;99.90
52107;DHT22;38105;52.968;5.974;2022-09-23T18:08:12;14.00;99.90
52107;DHT22;38105;52.968;5.974;2022-09-23T18:10:38;14.00;99.90